Dog Valley, California Weather observations

Data are for 10 minute period ending at time listed.
 Day   Time    Ave.   Ave.  Ave.  Vector   Max.   Total    Solar   
  of    of     Air    Rel.  Wind   Wind    Wind  Precip.   Rad.    
Year   Day     Temp.  Hum.  Speed  Dir.    Gust                    
2015   (PST)    F      %     mph   deg.    mph     in.     W/m2    
------------------------------------------------------------------- 
 240   12:00   83.0    18    2.0   222     11.0    5.97     588  
 240   13:00   85.0    17    3.0   242     10.0    5.97     542  
 240   14:00   86.0    18    3.0   223     10.0    5.97     720  
 240   15:00   83.0    19    2.0   199     11.0    5.97     386  
 240   16:00   79.0    23    2.0   271     11.0    5.97     242  
 240   17:00   76.0    25    2.0   249     13.0    5.97     140  
 240   18:00   75.0    27    1.0   140     10.0    5.97     102  
 240   19:00   71.0    30    1.0   198     11.0    5.97      30  
 240   20:00   68.0    33    1.0    90      7.0    5.97       0  
 240   21:00   66.0    37    1.0   148      7.0    5.97       0  
 240   22:00   64.0    40    1.0   139      5.0    5.97       0  
 240   23:00   61.0    45    0.0   221      4.0    5.97       0  
 241    0:00   59.0    48    0.0     2      3.0    5.97       0  
 241    1:00   62.0    46    1.0   165     10.0    5.97       0  
 241    2:00   60.0    49    1.0   141      5.0    5.97       0  
 241    3:00   59.0    51    2.0   134      6.0    5.97       0  
 241    4:00   59.0    50    3.0   142      9.0    5.97       0  
 241    5:00   59.0    51    1.0   123      9.0    5.97       0  
 241    6:00   60.0    50    3.0   233     10.0    5.97       1  
 241    7:00   60.0    52    4.0   243     12.0    5.97      31  
 241    8:00   62.0    50    3.0   255     11.0    5.97      87  
 241    9:00   66.0    46    2.0   150     11.0    5.97     217  
 241   10:00   74.0    36    4.0   184     13.0    5.97     619  
 241   11:00   75.0    35    3.0   213     16.0    5.97     759  

Return to Dog Valley, California graphs page.


Western Regional Climate Center,wrcc@dri.edu